Aviation Digital Data Service (ADDS)

Output produced by METARs form (1738 UTC 27 May 2017)
found at http://www.aviationweather.gov/adds/metars/
 
TAF HHAS 270900Z 2712/2812 09012KT 9/9 FEW030 
     TEMPO 2712/2715 5000HZ
       
TAF HHSB 270400 2706/2806 34010G20KT 9000 HZ FEW020CB